createdAt,value
2023-01-25T00:01:08.621Z,83.70
2023-01-25T00:03:31.909Z,83.80
2023-01-25T00:06:02.255Z,83.90
2023-01-25T00:08:25.651Z,83.90
2023-01-25T00:10:52.556Z,84.30
2023-01-25T00:13:15.855Z,84.00
2023-01-25T00:15:39.081Z,84.20
2023-01-25T00:18:02.371Z,84.10
2023-01-25T00:20:25.722Z,84.00
2023-01-25T00:22:50.504Z,84.00
2023-01-25T00:25:13.723Z,84.40
2023-01-25T00:27:37.115Z,84.80
2023-01-25T00:30:00.380Z,84.80
2023-01-25T00:32:43.592Z,83.80
2023-01-25T00:35:12.182Z,84.20
2023-01-25T00:37:39.206Z,84.50
2023-01-25T00:40:03.924Z,84.60
2023-01-25T00:42:27.322Z,84.20
2023-01-25T00:44:50.860Z,84.40
2023-01-25T00:47:17.980Z,84.30
2023-01-25T00:49:43.239Z,83.90
2023-01-25T00:52:07.579Z,84.10
2023-01-25T00:54:30.873Z,84.50
2023-01-25T00:56:56.567Z,84.60
2023-01-25T00:59:20.029Z,84.50
2023-01-25T01:01:44.083Z,84.40
2023-01-25T01:04:07.376Z,84.70
2023-01-25T01:06:30.889Z,85.00
2023-01-25T01:08:54.444Z,84.60
2023-01-25T01:11:18.760Z,84.80
2023-01-25T01:13:43.585Z,84.80
2023-01-25T01:16:11.727Z,84.60
2023-01-25T01:18:36.073Z,84.40
2023-01-25T01:20:59.387Z,84.40
2023-01-25T01:23:22.844Z,84.20
2023-01-25T01:25:46.469Z,84.30
2023-01-25T01:28:09.955Z,84.60
2023-01-25T01:30:34.645Z,84.50
2023-01-25T01:32:57.907Z,84.50
2023-01-25T01:35:21.197Z,84.40
2023-01-25T01:37:44.573Z,84.60
2023-01-25T01:40:10.678Z,84.70
2023-01-25T01:42:34.008Z,84.60
2023-01-25T01:44:57.760Z,84.90
2023-01-25T01:47:27.689Z,85.20
2023-01-25T01:50:01.024Z,84.10
2023-01-25T01:52:31.433Z,84.20
2023-01-25T01:54:58.529Z,85.00
2023-01-25T01:57:26.947Z,85.00
2023-01-25T01:59:58.036Z,84.50
2023-01-25T02:02:22.893Z,84.30
2023-01-25T02:04:49.917Z,84.40
2023-01-25T02:07:19.643Z,84.70
2023-01-25T02:09:46.420Z,84.50
2023-01-25T02:12:12.619Z,85.10
2023-01-25T02:14:36.341Z,84.70
2023-01-25T02:17:00.139Z,85.10
2023-01-25T02:19:35.647Z,84.50
2023-01-25T02:22:00.259Z,84.30
2023-01-25T02:24:29.806Z,84.90
2023-01-25T02:26:54.645Z,85.20
2023-01-25T02:29:23.108Z,84.90
2023-01-25T02:31:49.611Z,84.30
2023-01-25T02:34:13.110Z,84.80
2023-01-25T02:36:37.248Z,84.20
2023-01-25T02:39:04.239Z,84.60
2023-01-25T02:41:34.015Z,85.10
2023-01-25T02:43:58.883Z,84.60
2023-01-25T02:46:27.480Z,84.70
2023-01-25T02:48:50.853Z,85.30
2023-01-25T02:51:14.419Z,84.50
2023-01-25T02:53:37.786Z,85.00
2023-01-25T02:56:01.055Z,84.90
2023-01-25T02:58:25.118Z,85.20
2023-01-25T03:00:49.857Z,84.50
2023-01-25T03:03:14.023Z,85.00
2023-01-25T03:05:37.771Z,85.20
2023-01-25T03:08:01.449Z,85.30
2023-01-25T03:10:24.863Z,84.70
2023-01-25T03:12:49.104Z,85.20
2023-01-25T03:15:12.494Z,84.90
2023-01-25T03:17:37.177Z,84.80
2023-01-25T03:20:00.635Z,84.40
2023-01-25T03:22:23.950Z,84.80
2023-01-25T03:24:48.449Z,84.80
2023-01-25T03:27:14.191Z,85.00
2023-01-25T03:29:41.708Z,84.80
2023-01-25T03:32:10.723Z,85.20
2023-01-25T03:34:35.444Z,85.40
2023-01-25T03:36:59.613Z,85.30
2023-01-25T03:39:23.028Z,84.80
2023-01-25T03:41:46.339Z,85.70
2023-01-25T03:44:11.664Z,85.00
2023-01-25T03:46:35.579Z,84.60
2023-01-25T03:49:01.480Z,85.20
2023-01-25T03:51:26.607Z,85.20
2023-01-25T03:53:49.998Z,85.60
2023-01-25T03:56:17.572Z,84.30
2023-01-25T03:58:48.364Z,85.30
2023-01-25T04:01:11.757Z,85.10
2023-01-25T04:03:35.293Z,84.90
2023-01-25T04:05:59.799Z,84.70
2023-01-25T04:08:27.031Z,84.70
2023-01-25T04:10:54.008Z,84.90
2023-01-25T04:13:17.387Z,85.20
2023-01-25T04:15:40.715Z,85.40
2023-01-25T04:18:12.428Z,85.00
2023-01-25T04:20:36.214Z,85.40
2023-01-25T04:22:59.850Z,84.80
2023-01-25T04:25:31.816Z,84.70
2023-01-25T04:27:55.468Z,85.00
2023-01-25T04:30:19.461Z,85.20
2023-01-25T04:32:44.621Z,85.30
2023-01-25T04:35:16.388Z,85.40
2023-01-25T04:37:40.178Z,86.00
2023-01-25T04:40:06.773Z,85.70
2023-01-25T04:42:37.759Z,85.90
2023-01-25T04:45:01.311Z,85.90
2023-01-25T04:47:25.087Z,86.00
2023-01-25T04:49:48.665Z,85.00
2023-01-25T04:52:15.229Z,85.70
2023-01-25T04:54:38.920Z,86.10
2023-01-25T04:57:02.420Z,85.10
2023-01-25T04:59:27.556Z,85.00
2023-01-25T05:01:51.466Z,85.40
2023-01-25T05:04:14.828Z,85.10
2023-01-25T05:06:41.664Z,85.40
2023-01-25T05:09:05.487Z,85.70
2023-01-25T05:11:30.846Z,85.40
2023-01-25T05:14:11.525Z,85.90
2023-01-25T05:16:36.477Z,85.20
2023-01-25T05:19:00.435Z,85.40
2023-01-25T05:21:54.627Z,85.50
2023-01-25T05:24:18.308Z,85.60
2023-01-25T05:26:59.232Z,85.40
2023-01-25T05:29:22.874Z,85.80
2023-01-25T05:31:57.347Z,85.50
2023-01-25T05:34:20.975Z,85.30
2023-01-25T05:36:44.227Z,85.20
2023-01-25T05:39:08.731Z,85.60
2023-01-25T05:41:32.746Z,85.40
2023-01-25T05:43:56.277Z,85.80
2023-01-25T05:46:20.349Z,85.80
2023-01-25T05:48:45.083Z,85.90
2023-01-25T05:51:08.732Z,85.90
2023-01-25T05:53:32.197Z,85.80
2023-01-25T05:55:56.057Z,85.50
2023-01-25T05:58:19.448Z,86.10
2023-01-25T06:00:42.905Z,85.70
2023-01-25T06:03:11.612Z,85.90
2023-01-25T06:05:38.199Z,85.70
2023-01-25T06:08:01.423Z,86.00
2023-01-25T06:10:39.321Z,85.30
2023-01-25T06:13:03.226Z,85.30
2023-01-25T06:15:28.018Z,85.10
2023-01-25T06:17:57.044Z,85.50
2023-01-25T06:20:40.931Z,85.40
2023-01-25T06:23:04.356Z,85.60
2023-01-25T06:25:27.627Z,86.30
2023-01-25T06:27:50.882Z,85.40
2023-01-25T06:30:14.777Z,85.80
2023-01-25T06:32:38.088Z,86.10
2023-01-25T06:35:01.353Z,85.70
2023-01-25T06:37:26.025Z,85.80
2023-01-25T06:39:49.405Z,85.60
2023-01-25T06:42:13.049Z,85.60
2023-01-25T06:44:36.288Z,85.90
2023-01-25T06:46:59.626Z,85.80
2023-01-25T06:49:22.859Z,85.50
2023-01-25T06:51:46.123Z,85.30
2023-01-25T06:54:10.707Z,85.50
2023-01-25T06:56:34.088Z,85.90
2023-01-25T06:58:57.464Z,86.30
2023-01-25T07:01:27.501Z,85.50
2023-01-25T07:03:52.277Z,85.30
2023-01-25T07:06:15.626Z,85.90
2023-01-25T07:08:39.779Z,86.20
2023-01-25T07:11:09.482Z,86.50
2023-01-25T07:13:34.582Z,86.50
2023-01-25T07:15:59.241Z,86.20
2023-01-25T07:18:22.744Z,86.00
2023-01-25T07:20:46.014Z,85.40
2023-01-25T07:23:09.696Z,86.20
2023-01-25T07:25:32.967Z,86.40
2023-01-25T07:27:57.801Z,86.60
2023-01-25T07:30:21.733Z,86.40
2023-01-25T07:32:45.060Z,85.60
2023-01-25T07:35:10.255Z,86.00
2023-01-25T07:37:34.410Z,86.40
2023-01-25T07:39:58.247Z,86.20
2023-01-25T07:42:21.458Z,86.20
2023-01-25T07:44:51.750Z,86.00
2023-01-25T07:47:15.410Z,86.10
2023-01-25T07:49:38.658Z,86.00
2023-01-25T07:52:01.920Z,86.40
2023-01-25T07:54:25.262Z,86.80
2023-01-25T07:56:49.559Z,87.20
2023-01-25T07:59:14.171Z,86.90
2023-01-25T08:01:40.263Z,86.90
2023-01-25T08:04:05.212Z,86.50
2023-01-25T08:06:35.662Z,86.80
2023-01-25T08:09:00.529Z,86.60
2023-01-25T08:11:26.210Z,86.80
2023-01-25T08:13:50.591Z,86.50
2023-01-25T08:16:14.331Z,86.70
2023-01-25T08:18:39.049Z,87.00
2023-01-25T08:21:03.311Z,86.80
2023-01-25T08:23:26.727Z,86.60
2023-01-25T08:25:50.006Z,87.00
2023-01-25T08:28:13.343Z,86.70
2023-01-25T08:30:36.695Z,86.50
2023-01-25T08:33:02.712Z,86.60
2023-01-25T08:35:27.306Z,86.30
2023-01-25T08:37:50.965Z,86.70
2023-01-25T08:40:14.885Z,86.60
2023-01-25T08:42:38.160Z,86.40
2023-01-25T08:45:02.681Z,86.60
2023-01-25T08:47:26.713Z,87.30
2023-01-25T08:49:51.062Z,87.20
2023-01-25T08:52:15.926Z,86.60
2023-01-25T08:54:39.154Z,87.00
2023-01-25T08:57:03.154Z,86.90
2023-01-25T08:59:26.485Z,87.00
2023-01-25T09:01:49.837Z,86.90
2023-01-25T09:04:13.155Z,87.10
2023-01-25T09:06:36.370Z,86.50
2023-01-25T09:09:01.276Z,86.80
2023-01-25T09:11:25.079Z,86.60
2023-01-25T09:13:52.028Z,87.00
2023-01-25T09:16:18.323Z,86.00
2023-01-25T09:18:43.968Z,86.20
2023-01-25T09:21:09.332Z,86.90
2023-01-25T09:23:33.304Z,86.20
2023-01-25T09:26:05.921Z,86.80
2023-01-25T09:28:30.979Z,86.80
2023-01-25T09:31:18.703Z,87.20
2023-01-25T09:34:15.826Z,86.60
2023-01-25T09:36:39.249Z,86.90
2023-01-25T09:39:02.458Z,87.00
2023-01-25T09:42:00.389Z,87.00
2023-01-25T09:44:44.623Z,87.20
2023-01-25T09:47:17.481Z,87.00
2023-01-25T09:49:58.199Z,86.80
2023-01-25T09:52:54.020Z,87.00
2023-01-25T09:55:22.642Z,87.10
2023-01-25T09:57:48.368Z,86.80
2023-01-25T10:00:19.614Z,87.00
2023-01-25T10:02:49.420Z,87.10
2023-01-25T10:05:16.999Z,86.30
2023-01-25T10:07:57.863Z,86.90
2023-01-25T10:10:26.111Z,87.00
2023-01-25T10:12:51.035Z,87.40
2023-01-25T10:15:23.260Z,87.10
2023-01-25T10:17:47.287Z,86.60
2023-01-25T10:20:24.135Z,87.10
2023-01-25T10:22:53.527Z,87.50
2023-01-25T10:25:40.270Z,86.70
2023-01-25T10:28:30.016Z,86.70
2023-01-25T10:30:59.783Z,87.40
2023-01-25T10:33:23.202Z,87.20
2023-01-25T10:35:48.514Z,87.00
2023-01-25T10:38:18.495Z,86.90
2023-01-25T10:40:46.932Z,86.60
2023-01-25T10:43:18.706Z,86.90
2023-01-25T10:45:43.140Z,86.50
2023-01-25T10:48:12.205Z,86.70
2023-01-25T10:50:51.432Z,86.30
2023-01-25T10:53:26.917Z,86.00
2023-01-25T10:56:01.242Z,87.10
2023-01-25T10:58:36.130Z,86.40
2023-01-25T11:00:59.451Z,86.70
2023-01-25T11:03:23.446Z,86.60
2023-01-25T11:05:55.964Z,86.60
2023-01-25T11:08:25.912Z,86.80
2023-01-25T11:10:49.835Z,87.00
2023-01-25T11:13:26.118Z,86.30
2023-01-25T11:15:53.418Z,86.80
2023-01-25T11:18:22.484Z,87.50
2023-01-25T11:20:46.095Z,87.20
2023-01-25T11:23:24.661Z,87.00
2023-01-25T11:25:48.218Z,86.10
2023-01-25T11:28:17.839Z,86.60
2023-01-25T11:30:41.247Z,87.40
2023-01-25T11:33:12.860Z,86.80
2023-01-25T11:35:38.606Z,87.10
2023-01-25T11:38:12.643Z,87.00
2023-01-25T11:40:44.360Z,87.40
2023-01-25T11:43:25.975Z,87.40
2023-01-25T11:46:14.074Z,87.50
2023-01-25T11:49:04.771Z,87.10
2023-01-25T11:51:35.071Z,87.50
2023-01-25T11:54:25.572Z,87.90
2023-01-25T11:56:59.638Z,87.00
2023-01-25T11:59:42.705Z,87.20
2023-01-25T12:02:46.757Z,87.50
2023-01-25T12:05:43.938Z,86.50
2023-01-25T12:08:21.594Z,86.80
2023-01-25T12:10:54.261Z,86.70
2023-01-25T12:13:26.143Z,86.10
2023-01-25T12:16:07.157Z,86.50
2023-01-25T12:18:49.820Z,87.10
2023-01-25T12:21:33.084Z,87.40
2023-01-25T12:24:18.941Z,87.80
2023-01-25T12:26:52.968Z,87.70
2023-01-25T12:29:27.119Z,87.10
2023-01-25T12:31:57.582Z,87.30
2023-01-25T12:34:28.112Z,87.40
2023-01-25T12:36:52.936Z,87.30
2023-01-25T12:39:24.299Z,87.10
2023-01-25T12:41:54.613Z,87.20
2023-01-25T12:44:24.845Z,86.40
2023-01-25T12:46:56.229Z,87.00
2023-01-25T12:49:33.871Z,86.80
2023-01-25T12:52:05.262Z,86.90
2023-01-25T12:54:34.909Z,87.50
2023-01-25T12:57:12.778Z,87.30
2023-01-25T12:59:47.191Z,86.70
2023-01-25T13:02:32.306Z,86.90
2023-01-25T13:05:04.685Z,87.10
2023-01-25T13:07:38.643Z,87.60
2023-01-25T13:10:14.886Z,87.40
2023-01-25T13:12:53.345Z,87.10
2023-01-25T13:15:39.081Z,87.40
2023-01-25T13:18:02.288Z,87.30
2023-01-25T13:20:50.934Z,87.40
2023-01-25T13:23:33.148Z,87.60
2023-01-25T13:26:49.600Z,87.80
2023-01-25T13:30:03.682Z,87.90
2023-01-25T13:33:05.610Z,87.50
2023-01-25T13:35:44.436Z,87.30
2023-01-25T13:38:29.553Z,87.30
2023-01-25T13:41:14.411Z,87.20
2023-01-25T13:43:37.988Z,87.80
2023-01-25T13:46:01.726Z,87.30
2023-01-25T13:48:27.693Z,87.10
2023-01-25T13:50:54.196Z,87.40
2023-01-25T13:53:23.042Z,87.80
2023-01-25T13:55:50.354Z,88.00
2023-01-25T13:58:21.293Z,88.00
2023-01-25T14:00:54.799Z,87.70
2023-01-25T14:03:18.803Z,88.30
2023-01-25T14:05:50.222Z,88.30
2023-01-25T14:08:14.623Z,88.00
2023-01-25T14:10:37.893Z,87.70
2023-01-25T14:13:03.370Z,87.80
2023-01-25T14:15:29.860Z,87.60
2023-01-25T14:18:11.993Z,87.70
2023-01-25T14:20:35.400Z,87.60
2023-01-25T14:22:58.654Z,87.70
2023-01-25T14:25:25.500Z,87.70
2023-01-25T14:27:52.503Z,87.60
2023-01-25T14:30:23.944Z,87.40
2023-01-25T14:32:47.464Z,87.50
2023-01-25T14:35:53.794Z,87.80
2023-01-25T14:38:28.434Z,87.60
2023-01-25T14:40:54.364Z,87.10
2023-01-25T14:43:18.941Z,87.30
2023-01-25T14:45:43.915Z,87.50
2023-01-25T14:48:27.390Z,87.90
2023-01-25T14:50:50.757Z,88.00
2023-01-25T14:53:21.122Z,87.80
2023-01-25T14:55:46.471Z,87.60
2023-01-25T14:58:17.235Z,87.50
2023-01-25T15:00:41.145Z,88.10
2023-01-25T15:03:07.843Z,88.40
2023-01-25T15:05:34.432Z,88.10
2023-01-25T15:07:59.471Z,88.10
2023-01-25T15:10:25.346Z,88.80
2023-01-25T15:13:13.629Z,88.50
2023-01-25T15:15:37.994Z,88.20
2023-01-25T15:18:01.967Z,88.50
2023-01-25T15:20:35.427Z,88.80
2023-01-25T15:23:02.455Z,88.70
2023-01-25T15:25:25.763Z,88.70
2023-01-25T15:27:49.450Z,88.50
2023-01-25T15:30:14.882Z,88.40
2023-01-25T15:32:38.177Z,88.90
2023-01-25T15:35:01.450Z,88.70
2023-01-25T15:37:26.247Z,88.30
2023-01-25T15:39:50.539Z,88.10
2023-01-25T15:42:14.929Z,88.20
2023-01-25T15:44:38.353Z,88.70
2023-01-25T15:47:02.853Z,88.60
2023-01-25T15:49:28.451Z,88.70
2023-01-25T15:51:51.760Z,88.60
2023-01-25T15:54:16.416Z,88.50
2023-01-25T15:56:43.173Z,88.50
2023-01-25T15:59:09.947Z,88.30
2023-01-25T16:01:33.476Z,88.00
2023-01-25T16:03:57.721Z,87.80
2023-01-25T16:06:37.652Z,87.70
2023-01-25T16:09:01.851Z,88.70
2023-01-25T16:11:26.707Z,88.70
2023-01-25T16:13:50.074Z,89.10
2023-01-25T16:16:20.043Z,89.10
2023-01-25T16:18:43.955Z,88.60
2023-01-25T16:21:07.307Z,88.50
2023-01-25T16:23:30.597Z,88.60
2023-01-25T16:25:53.757Z,88.80
2023-01-25T16:28:19.141Z,88.70
2023-01-25T16:30:44.328Z,89.00
2023-01-25T16:33:07.979Z,89.00
2023-01-25T16:35:31.219Z,88.90
2023-01-25T16:37:54.488Z,89.00
2023-01-25T16:40:24.717Z,88.70
2023-01-25T16:42:48.046Z,89.00
2023-01-25T16:45:12.959Z,89.30
2023-01-25T16:47:36.303Z,89.50
2023-01-25T16:49:59.587Z,89.50
2023-01-25T16:52:22.821Z,89.60
2023-01-25T16:54:46.051Z,89.40
2023-01-25T16:57:20.321Z,89.40
2023-01-25T16:59:44.128Z,89.40
2023-01-25T17:02:12.489Z,89.00
2023-01-25T17:04:35.777Z,89.20
2023-01-25T17:06:59.882Z,89.20
2023-01-25T17:09:25.507Z,89.00
2023-01-25T17:11:48.943Z,89.50
2023-01-25T17:14:16.804Z,88.80
2023-01-25T17:16:39.966Z,88.90
2023-01-25T17:19:08.328Z,88.70
2023-01-25T17:21:32.388Z,88.90
2023-01-25T17:23:58.504Z,88.70
2023-01-25T17:26:24.115Z,88.30
2023-01-25T17:28:48.140Z,88.80
2023-01-25T17:31:17.428Z,89.10
2023-01-25T17:33:40.852Z,89.20
2023-01-25T17:36:06.193Z,89.10
2023-01-25T17:38:30.172Z,88.70
2023-01-25T17:40:53.441Z,88.70
2023-01-25T17:43:16.838Z,88.80
2023-01-25T17:45:40.604Z,88.50
2023-01-25T17:48:03.874Z,88.20
2023-01-25T17:50:27.153Z,88.30
2023-01-25T17:52:51.988Z,88.00
2023-01-25T17:55:15.433Z,88.40
2023-01-25T17:57:39.390Z,88.10
2023-01-25T18:00:02.699Z,88.00
2023-01-25T18:02:36.013Z,88.30
2023-01-25T18:04:59.715Z,88.50
2023-01-25T18:07:22.993Z,88.50
2023-01-25T18:09:47.709Z,88.60
2023-01-25T18:12:11.048Z,88.10
2023-01-25T18:14:35.062Z,88.20
2023-01-25T18:16:58.571Z,88.10
2023-01-25T18:19:22.103Z,87.70
2023-01-25T18:21:45.401Z,88.10
2023-01-25T18:24:26.348Z,88.30
2023-01-25T18:26:52.702Z,87.60
2023-01-25T18:29:40.612Z,87.70
2023-01-25T18:32:04.184Z,88.10
2023-01-25T18:34:27.519Z,88.20
2023-01-25T18:36:50.900Z,88.10
2023-01-25T18:39:14.127Z,88.00
2023-01-25T18:41:37.492Z,88.20
2023-01-25T18:44:02.663Z,88.20
2023-01-25T18:46:26.244Z,88.20
2023-01-25T18:48:51.071Z,88.20
2023-01-25T18:51:17.844Z,88.40
2023-01-25T18:53:43.493Z,88.10
2023-01-25T18:56:09.443Z,87.90
2023-01-25T18:58:36.367Z,87.80
2023-01-25T19:01:06.820Z,88.10
2023-01-25T19:03:30.643Z,88.10
2023-01-25T19:05:54.051Z,88.20
2023-01-25T19:08:17.317Z,88.40
2023-01-25T19:10:40.595Z,88.00
2023-01-25T19:13:03.910Z,88.20
2023-01-25T19:15:27.894Z,88.20
2023-01-25T19:17:52.633Z,88.60
2023-01-25T19:20:16.419Z,88.40
2023-01-25T19:22:40.577Z,88.50
2023-01-25T19:25:04.186Z,88.40
2023-01-25T19:27:29.427Z,88.00
2023-01-25T19:29:52.941Z,88.20
2023-01-25T19:32:16.431Z,88.60
2023-01-25T19:34:41.135Z,88.90
2023-01-25T19:37:04.514Z,89.10
2023-01-25T19:39:28.516Z,89.00
2023-01-25T19:41:54.346Z,89.10
2023-01-25T19:44:17.761Z,88.70
2023-01-25T19:46:41.616Z,88.50
2023-01-25T19:49:08.093Z,88.70
2023-01-25T19:51:35.220Z,89.10
2023-01-25T19:54:00.708Z,89.00
2023-01-25T19:56:23.960Z,88.80
2023-01-25T19:58:49.353Z,89.00
2023-01-25T20:01:15.909Z,89.20
2023-01-25T20:03:39.916Z,89.00
2023-01-25T20:06:04.044Z,88.80
2023-01-25T20:08:31.215Z,89.30
2023-01-25T20:10:59.910Z,89.30
2023-01-25T20:13:23.189Z,88.50
2023-01-25T20:15:48.214Z,89.00
2023-01-25T20:18:11.633Z,88.70
2023-01-25T20:20:34.991Z,88.40
2023-01-25T20:22:58.244Z,88.90
2023-01-25T20:25:23.285Z,88.70
2023-01-25T20:27:46.579Z,88.90
2023-01-25T20:30:11.900Z,88.90
2023-01-25T20:32:37.602Z,88.90
2023-01-25T20:35:03.561Z,89.50
2023-01-25T20:37:26.937Z,89.80
2023-01-25T20:39:50.297Z,89.40
2023-01-25T20:42:14.968Z,88.90
2023-01-25T20:44:38.275Z,89.10
2023-01-25T20:47:01.550Z,89.00
2023-01-25T20:49:24.888Z,89.30
2023-01-25T20:51:48.931Z,89.50
2023-01-25T20:54:12.845Z,89.70
2023-01-25T20:56:36.154Z,89.40
2023-01-25T20:59:01.056Z,90.00
2023-01-25T21:01:29.548Z,89.80
2023-01-25T21:03:54.376Z,89.30
2023-01-25T21:06:18.703Z,89.10
2023-01-25T21:08:42.175Z,89.50
2023-01-25T21:11:06.392Z,89.40
2023-01-25T21:13:30.404Z,89.50
2023-01-25T21:16:01.781Z,89.30
2023-01-25T21:18:25.475Z,89.20
2023-01-25T21:20:48.753Z,88.90
2023-01-25T21:23:12.036Z,88.80
2023-01-25T21:25:35.316Z,89.20
2023-01-25T21:27:58.715Z,89.10
2023-01-25T21:30:23.307Z,88.90
2023-01-25T21:32:48.019Z,89.80
2023-01-25T21:35:11.750Z,89.40
2023-01-25T21:37:35.183Z,89.70
2023-01-25T21:39:58.381Z,89.20
2023-01-25T21:42:21.680Z,89.20
2023-01-25T21:45:02.555Z,89.10
2023-01-25T21:47:30.939Z,89.30
2023-01-25T21:50:13.844Z,90.00
2023-01-25T21:52:37.371Z,90.00
2023-01-25T21:55:00.747Z,89.70
2023-01-25T21:57:24.131Z,89.70
2023-01-25T21:59:48.781Z,89.80
2023-01-25T22:02:15.212Z,90.10
2023-01-25T22:04:39.204Z,89.40
2023-01-25T22:07:04.658Z,89.80
2023-01-25T22:09:27.885Z,89.90
2023-01-25T22:11:51.732Z,89.60
2023-01-25T22:14:15.224Z,89.50
2023-01-25T22:16:38.619Z,89.70
2023-01-25T22:19:01.935Z,89.70
2023-01-25T22:21:28.699Z,89.50
2023-01-25T22:23:53.615Z,89.60
2023-01-25T22:26:18.772Z,89.40
2023-01-25T22:28:47.960Z,89.90
2023-01-25T22:31:11.413Z,90.30
2023-01-25T22:33:34.670Z,90.30
2023-01-25T22:35:58.557Z,90.80
2023-01-25T22:38:21.823Z,90.50
2023-01-25T22:40:46.808Z,90.60
2023-01-25T22:43:10.039Z,90.00
2023-01-25T22:45:33.295Z,90.00
2023-01-25T22:47:56.565Z,89.00
2023-01-25T22:50:19.908Z,89.50
2023-01-25T22:52:43.152Z,89.60
2023-01-25T22:55:07.429Z,89.80
2023-01-25T22:57:32.051Z,89.70
2023-01-25T22:59:55.416Z,89.70
2023-01-25T23:02:18.707Z,89.60
2023-01-25T23:04:41.986Z,89.40
2023-01-25T23:07:11.979Z,89.10
2023-01-25T23:09:35.293Z,89.40
2023-01-25T23:11:58.633Z,88.60
2023-01-25T23:14:40.992Z,89.50
2023-01-25T23:17:18.198Z,89.60
2023-01-25T23:19:41.481Z,89.90
2023-01-25T23:22:05.286Z,89.90
2023-01-25T23:24:28.633Z,90.40
2023-01-25T23:26:51.917Z,90.40
2023-01-25T23:29:15.512Z,90.10
2023-01-25T23:31:40.254Z,89.50
2023-01-25T23:34:07.012Z,89.80
2023-01-25T23:36:32.522Z,89.80
2023-01-25T23:38:57.624Z,89.60
2023-01-25T23:41:23.982Z,89.10
2023-01-25T23:43:48.285Z,88.80
2023-01-25T23:46:14.185Z,89.00
2023-01-25T23:48:38.812Z,89.40
2023-01-25T23:51:02.612Z,89.70
2023-01-25T23:53:27.838Z,89.80
2023-01-25T23:55:54.782Z,90.20
2023-01-25T23:58:18.065Z,90.30
